createdAt,value
2018-12-25T00:02:16.136Z,3.10
2018-12-25T00:04:56.858Z,3.20
2018-12-25T00:07:39.012Z,3.30
2018-12-25T00:10:19.597Z,3.30
2018-12-25T00:13:00.673Z,3.30
2018-12-25T00:15:41.306Z,3.30
2018-12-25T00:18:22.396Z,3.40
2018-12-25T00:21:03.744Z,3.40
2018-12-25T00:23:44.589Z,3.40
2018-12-25T00:26:24.905Z,3.60
2018-12-25T00:29:05.989Z,3.60
2018-12-25T00:31:47.194Z,3.60
2018-12-25T00:34:28.048Z,3.60
2018-12-25T00:37:08.822Z,3.60
2018-12-25T00:39:49.277Z,3.50
2018-12-25T00:42:30.135Z,3.60
2018-12-25T00:45:09.269Z,3.60
2018-12-25T00:47:57.673Z,3.70
2018-12-25T00:50:45.670Z,3.60
2018-12-25T00:53:33.837Z,3.70
2018-12-25T00:56:21.833Z,3.70
2018-12-25T01:02:03.548Z,3.70
2018-12-25T01:04:52.140Z,3.70
2018-12-25T01:07:40.348Z,3.80
2018-12-25T01:10:28.837Z,3.90
2018-12-25T01:19:23.336Z,4.00
2018-12-25T01:22:07.818Z,4.00
2018-12-25T01:24:55.748Z,4.00
2018-12-25T01:27:43.736Z,4.00
2018-12-25T01:30:31.895Z,4.00
2018-12-25T01:33:19.890Z,3.90
2018-12-25T01:36:07.944Z,3.90
2018-12-25T01:38:55.953Z,3.90
2018-12-25T01:41:44.212Z,3.90
2018-12-25T01:44:32.477Z,3.80
2018-12-25T01:47:20.490Z,3.80
2018-12-25T01:50:08.480Z,3.90
2018-12-25T01:52:56.964Z,4.00
2018-12-25T01:58:38.561Z,4.00
2018-12-25T02:01:26.485Z,4.00
2018-12-25T02:04:14.724Z,3.90
2018-12-25T02:07:02.775Z,3.90
2018-12-25T02:09:50.722Z,3.90
2018-12-25T02:12:38.955Z,4.00
2018-12-25T02:15:26.877Z,4.00
2018-12-25T02:18:15.178Z,3.90
2018-12-25T02:21:03.101Z,4.00
2018-12-25T02:23:51.117Z,4.00
2018-12-25T02:26:39.288Z,4.00
2018-12-25T02:29:27.272Z,4.00
2018-12-25T02:32:15.430Z,4.00
2018-12-25T02:35:03.503Z,4.00
2018-12-25T02:40:45.018Z,4.00
2018-12-25T02:43:13.939Z,4.00
2018-12-25T02:46:02.412Z,4.00
2018-12-25T02:48:50.593Z,4.00
2018-12-25T02:51:38.845Z,4.10
2018-12-25T02:54:26.907Z,4.10
2018-12-25T02:57:17.028Z,4.10
2018-12-25T03:03:14.212Z,4.00
2018-12-25T03:09:09.454Z,4.10
2018-12-25T03:11:57.389Z,4.10
2018-12-25T03:14:45.369Z,4.10
2018-12-25T03:17:33.557Z,4.20
2018-12-25T03:20:21.549Z,4.10
2018-12-25T03:23:09.987Z,4.20
2018-12-25T03:25:58.209Z,4.20
2018-12-25T03:28:38.893Z,4.20
2018-12-25T03:31:19.635Z,4.20
2018-12-25T03:34:00.460Z,4.10
2018-12-25T03:36:41.314Z,4.20
2018-12-25T03:39:22.342Z,4.20
2018-12-25T03:42:03.000Z,4.10
2018-12-25T03:44:43.873Z,4.20
2018-12-25T03:47:24.805Z,4.30
2018-12-25T03:50:10.971Z,4.30
2018-12-25T03:52:48.218Z,4.40
2018-12-25T03:55:29.531Z,4.40
2018-12-25T03:58:10.353Z,4.40
2018-12-25T04:00:51.138Z,4.40
2018-12-25T04:03:31.869Z,4.40
2018-12-25T04:06:12.305Z,4.40
2018-12-25T04:08:53.289Z,4.40
2018-12-25T04:11:34.550Z,4.40
2018-12-25T04:14:14.865Z,4.50
2018-12-25T04:16:55.859Z,4.50
2018-12-25T04:19:36.786Z,4.50
2018-12-25T04:22:17.733Z,4.40
2018-12-25T04:24:58.484Z,4.40
2018-12-25T04:27:39.283Z,4.40
2018-12-25T04:30:19.633Z,4.50
2018-12-25T04:32:58.758Z,4.60
2018-12-25T04:35:46.753Z,4.60
2018-12-25T04:38:35.157Z,4.60
2018-12-25T04:41:23.159Z,4.70
2018-12-25T04:44:11.329Z,4.60
2018-12-25T04:46:40.318Z,4.60
2018-12-25T04:49:09.227Z,4.60
2018-12-25T04:51:38.104Z,4.70
2018-12-25T04:54:07.414Z,4.60
2018-12-25T04:56:36.086Z,4.70
2018-12-25T04:59:04.776Z,4.70
2018-12-25T05:01:33.957Z,4.70
2018-12-25T05:04:03.105Z,4.70
2018-12-25T05:06:32.000Z,4.80
2018-12-25T05:09:01.145Z,4.80
2018-12-25T05:11:30.372Z,4.90
2018-12-25T05:13:59.289Z,4.80
2018-12-25T05:16:28.157Z,4.80
2018-12-25T05:18:56.803Z,4.80
2018-12-25T05:21:25.725Z,4.80
2018-12-25T05:23:54.644Z,4.90
2018-12-25T05:26:23.570Z,4.90
2018-12-25T05:28:52.508Z,4.90
2018-12-25T05:31:21.432Z,4.90
2018-12-25T05:33:50.463Z,4.90
2018-12-25T05:36:19.336Z,4.90
2018-12-25T05:38:48.452Z,5.00
2018-12-25T05:41:17.176Z,5.00
2018-12-25T05:43:46.335Z,5.00
2018-12-25T05:46:15.461Z,5.00
2018-12-25T05:48:44.404Z,4.90
2018-12-25T05:51:13.645Z,4.90
2018-12-25T05:53:42.554Z,4.90
2018-12-25T05:56:11.469Z,4.90
2018-12-25T05:58:40.360Z,5.00
2018-12-25T06:01:09.258Z,5.00
2018-12-25T06:03:38.225Z,5.00
2018-12-25T06:06:07.666Z,5.00
2018-12-25T06:08:36.576Z,5.00
2018-12-25T06:11:05.538Z,5.00
2018-12-25T06:13:35.026Z,4.90
2018-12-25T06:16:04.243Z,5.00
2018-12-25T06:18:33.277Z,5.00
2018-12-25T06:21:02.304Z,5.00
2018-12-25T06:23:30.954Z,5.00
2018-12-25T06:26:00.351Z,5.00
2018-12-25T06:28:29.009Z,5.00
2018-12-25T06:30:57.920Z,4.90
2018-12-25T06:33:26.858Z,5.00
2018-12-25T06:35:55.857Z,4.90
2018-12-25T06:38:24.744Z,5.00
2018-12-25T06:40:53.893Z,4.90
2018-12-25T06:43:23.031Z,4.90
2018-12-25T06:45:52.171Z,5.00
2018-12-25T06:48:20.882Z,5.00
2018-12-25T06:50:50.021Z,5.00
2018-12-25T06:53:18.914Z,5.00
2018-12-25T06:55:47.880Z,4.90
2018-12-25T06:58:17.025Z,4.90
2018-12-25T07:00:46.156Z,4.90
2018-12-25T07:03:15.104Z,4.80
2018-12-25T07:05:43.989Z,4.90
2018-12-25T07:08:12.885Z,4.90
2018-12-25T07:10:41.604Z,4.90
2018-12-25T07:13:10.253Z,4.90
2018-12-25T07:15:39.145Z,4.90
2018-12-25T07:18:08.092Z,4.80
2018-12-25T07:20:36.996Z,4.80
2018-12-25T07:23:06.192Z,4.80
2018-12-25T07:25:35.143Z,4.80
2018-12-25T07:28:23.130Z,4.90
2018-12-25T07:30:52.601Z,4.90
2018-12-25T07:33:21.480Z,4.90
2018-12-25T07:35:50.182Z,4.70
2018-12-25T07:38:19.232Z,4.70
2018-12-25T07:40:48.434Z,4.70
2018-12-25T07:43:17.357Z,4.70
2018-12-25T07:45:46.582Z,4.70
2018-12-25T07:48:15.338Z,4.70
2018-12-25T07:50:44.025Z,4.60
2018-12-25T07:53:13.221Z,4.50
2018-12-25T07:55:42.184Z,4.60
2018-12-25T07:58:10.897Z,4.60
2018-12-25T08:00:39.838Z,4.60
2018-12-25T08:03:09.365Z,4.60
2018-12-25T08:05:38.310Z,4.60
2018-12-25T08:08:07.476Z,4.60
2018-12-25T08:10:36.473Z,4.60
2018-12-25T08:13:05.153Z,4.50
2018-12-25T08:15:34.570Z,4.50
2018-12-25T08:18:03.586Z,4.60
2018-12-25T08:20:32.577Z,4.70
2018-12-25T08:23:02.701Z,4.70
2018-12-25T08:25:32.121Z,4.60
2018-12-25T08:28:20.277Z,4.70
2018-12-25T08:30:48.957Z,4.60
2018-12-25T08:33:17.593Z,4.70
2018-12-25T08:35:46.639Z,4.70
2018-12-25T08:38:15.272Z,4.80
2018-12-25T08:40:44.193Z,4.80
2018-12-25T08:43:12.884Z,4.80
2018-12-25T08:45:42.229Z,4.70
2018-12-25T08:48:11.152Z,4.70
2018-12-25T08:50:40.054Z,4.80
2018-12-25T08:53:08.957Z,4.80
2018-12-25T08:55:38.096Z,4.90
2018-12-25T08:58:06.745Z,4.90
2018-12-25T09:00:35.604Z,4.90
2018-12-25T09:03:04.307Z,5.00
2018-12-25T09:05:32.962Z,5.00
2018-12-25T09:08:01.852Z,5.00
2018-12-25T09:10:31.198Z,5.00
2018-12-25T09:13:00.076Z,5.00
2018-12-25T09:15:29.176Z,5.10
2018-12-25T09:17:58.098Z,5.10
2018-12-25T09:20:26.929Z,5.10
2018-12-25T09:22:56.039Z,5.10
2018-12-25T09:25:25.186Z,5.10
2018-12-25T09:27:54.110Z,5.10
2018-12-25T09:30:22.748Z,5.10
2018-12-25T09:32:51.660Z,5.10
2018-12-25T09:35:20.831Z,5.10
2018-12-25T09:37:49.768Z,5.10
2018-12-25T09:40:18.405Z,5.20
2018-12-25T09:42:47.333Z,5.20
2018-12-25T09:45:16.264Z,5.20
2018-12-25T09:47:44.900Z,5.10
2018-12-25T09:50:13.616Z,5.20
2018-12-25T09:53:01.818Z,5.20
2018-12-25T09:55:30.985Z,5.20
2018-12-25T09:57:59.849Z,5.20
2018-12-25T10:00:28.769Z,5.20
2018-12-25T10:02:58.118Z,5.20
2018-12-25T10:05:27.052Z,5.20
2018-12-25T10:07:55.703Z,5.20
2018-12-25T10:10:24.819Z,5.20
2018-12-25T10:12:53.725Z,5.20
2018-12-25T10:15:41.664Z,5.30
2018-12-25T10:18:10.372Z,5.30
2018-12-25T10:20:39.490Z,5.30
2018-12-25T10:23:09.657Z,5.30
2018-12-25T10:25:57.568Z,5.40
2018-12-25T10:28:26.565Z,5.20
2018-12-25T10:30:55.460Z,5.20
2018-12-25T10:33:24.560Z,5.20
2018-12-25T10:35:53.545Z,5.30
2018-12-25T10:38:22.524Z,5.40
2018-12-25T10:40:51.462Z,5.40
2018-12-25T10:43:20.725Z,5.40
2018-12-25T10:45:49.900Z,5.40
2018-12-25T10:48:38.499Z,5.50
2018-12-25T10:51:07.294Z,5.50
2018-12-25T10:53:36.400Z,5.50
2018-12-25T10:56:05.427Z,5.40
2018-12-25T10:58:34.761Z,5.40
2018-12-25T11:01:15.277Z,5.50
2018-12-25T11:03:44.433Z,5.60
2018-12-25T11:06:32.588Z,5.50
2018-12-25T11:09:01.416Z,5.50
2018-12-25T11:11:30.532Z,5.60
2018-12-25T11:13:59.392Z,5.70
2018-12-25T11:16:28.572Z,5.70
2018-12-25T11:18:57.748Z,5.80
2018-12-25T11:21:26.656Z,5.80
2018-12-25T11:23:55.336Z,5.70
2018-12-25T11:26:24.700Z,5.80
2018-12-25T11:28:54.052Z,5.80
2018-12-25T11:31:22.768Z,5.80
2018-12-25T11:33:52.483Z,5.90
2018-12-25T11:36:21.376Z,5.90
2018-12-25T11:38:50.217Z,5.90
2018-12-25T11:41:18.857Z,5.90
2018-12-25T11:43:47.717Z,6.00
2018-12-25T11:46:16.629Z,6.00
2018-12-25T11:48:45.505Z,5.90
2018-12-25T11:51:14.382Z,6.00
2018-12-25T11:53:43.549Z,6.10
2018-12-25T11:56:12.268Z,6.10
2018-12-25T11:58:41.229Z,6.30
2018-12-25T12:01:10.090Z,6.20
2018-12-25T12:03:39.002Z,6.20
2018-12-25T12:06:07.853Z,6.20
2018-12-25T12:08:36.961Z,6.30
2018-12-25T12:11:05.828Z,6.30
2018-12-25T12:13:34.977Z,6.30
2018-12-25T12:16:03.913Z,6.30
2018-12-25T12:18:32.578Z,6.40
2018-12-25T12:21:01.748Z,6.40
2018-12-25T12:23:30.937Z,6.30
2018-12-25T12:26:00.036Z,6.40
2018-12-25T12:28:29.152Z,6.50
2018-12-25T12:30:57.861Z,6.50
2018-12-25T12:33:26.527Z,6.60
2018-12-25T12:35:55.814Z,6.70
2018-12-25T12:38:24.513Z,6.60
2018-12-25T12:40:53.153Z,6.70
2018-12-25T12:43:22.044Z,6.70
2018-12-25T12:45:51.097Z,6.80
2018-12-25T12:48:19.734Z,6.60
2018-12-25T12:50:48.608Z,6.50
2018-12-25T12:53:36.573Z,6.50
2018-12-25T12:56:05.752Z,6.50
2018-12-25T12:58:37.649Z,6.40
2018-12-25T13:01:06.568Z,6.40
2018-12-25T13:03:54.493Z,6.30
2018-12-25T13:06:42.716Z,6.40
2018-12-25T13:09:30.852Z,6.30
2018-12-25T13:12:19.045Z,6.30
2018-12-25T13:15:07.240Z,6.20
2018-12-25T13:17:55.580Z,6.20
2018-12-25T13:20:43.510Z,6.20
2018-12-25T13:23:24.513Z,6.40
2018-12-25T13:25:53.432Z,6.20
2018-12-25T13:28:22.777Z,6.20
2018-12-25T13:31:11.001Z,6.20
2018-12-25T13:33:59.160Z,6.10
2018-12-25T13:36:47.200Z,6.10
2018-12-25T13:39:35.369Z,6.10
2018-12-25T13:42:23.345Z,6.20
2018-12-25T13:45:11.285Z,6.20
2018-12-25T13:47:59.529Z,6.20
2018-12-25T13:50:47.764Z,6.10
2018-12-25T13:53:35.691Z,6.20
2018-12-25T13:58:58.425Z,6.10
2018-12-25T14:01:27.477Z,6.10
2018-12-25T14:04:15.717Z,6.10
2018-12-25T14:07:03.641Z,6.10
2018-12-25T14:09:52.100Z,6.20
2018-12-25T14:12:40.517Z,6.20
2018-12-25T14:15:28.529Z,6.10
2018-12-25T14:18:09.317Z,6.10
2018-12-25T14:20:50.812Z,6.10
2018-12-25T14:23:31.557Z,6.10
2018-12-25T14:26:13.049Z,6.10
2018-12-25T14:28:53.541Z,6.10
2018-12-25T14:31:34.534Z,6.10
2018-12-25T14:34:16.579Z,6.10
2018-12-25T14:36:57.781Z,6.10
2018-12-25T14:39:38.474Z,6.20
2018-12-25T14:42:19.757Z,6.20
2018-12-25T14:45:00.949Z,6.20
2018-12-25T14:47:42.373Z,6.20
2018-12-25T14:50:23.362Z,6.20
2018-12-25T14:53:03.913Z,6.20
2018-12-25T14:55:44.644Z,6.20
2018-12-25T14:58:25.365Z,6.20
2018-12-25T15:01:05.738Z,6.20
2018-12-25T15:03:46.586Z,6.20
2018-12-25T15:06:27.716Z,6.10
2018-12-25T15:09:09.146Z,6.10
2018-12-25T15:11:50.130Z,6.10
2018-12-25T15:14:31.013Z,6.10
2018-12-25T15:17:11.989Z,6.10
2018-12-25T15:19:52.589Z,6.10
2018-12-25T15:22:33.148Z,6.20
2018-12-25T15:25:14.173Z,6.10
2018-12-25T15:27:55.165Z,6.10
2018-12-25T15:30:35.917Z,6.10
2018-12-25T15:33:17.137Z,6.10
2018-12-25T15:35:58.322Z,6.10
2018-12-25T15:38:39.208Z,6.10
2018-12-25T15:41:19.974Z,6.10
2018-12-25T15:44:00.961Z,6.00
2018-12-25T15:46:41.887Z,6.00
2018-12-25T15:49:22.896Z,6.10
2018-12-25T15:52:03.344Z,6.10
2018-12-25T15:54:44.124Z,6.10
2018-12-25T15:57:24.905Z,6.10
2018-12-25T16:00:05.570Z,6.10
2018-12-25T16:02:46.569Z,6.10
2018-12-25T16:05:27.409Z,6.10
2018-12-25T16:08:08.619Z,6.10
2018-12-25T16:10:49.520Z,6.10
2018-12-25T16:13:30.417Z,6.10
2018-12-25T16:16:11.565Z,6.10
2018-12-25T16:18:52.678Z,6.20
2018-12-25T16:21:33.325Z,6.20
2018-12-25T16:24:14.258Z,6.20
2018-12-25T16:26:54.685Z,6.10
2018-12-25T16:29:35.704Z,6.20
2018-12-25T16:32:16.706Z,6.10
2018-12-25T16:34:57.497Z,6.20
2018-12-25T16:37:38.614Z,6.20
2018-12-25T16:40:19.649Z,6.10
2018-12-25T16:43:00.800Z,6.10
2018-12-25T16:45:41.946Z,6.10
2018-12-25T16:48:21.849Z,6.10
2018-12-25T16:51:10.049Z,6.10
2018-12-25T16:53:57.957Z,6.10
2018-12-25T16:56:46.396Z,6.20
2018-12-25T17:02:09.457Z,6.20
2018-12-25T17:04:38.969Z,6.20
2018-12-25T17:07:08.104Z,6.20
2018-12-25T17:09:37.281Z,6.20
2018-12-25T17:12:06.272Z,6.20
2018-12-25T17:14:35.267Z,6.20
2018-12-25T17:17:23.236Z,6.20
2018-12-25T17:20:11.621Z,6.20
2018-12-25T17:22:59.824Z,6.30
2018-12-25T17:25:28.692Z,6.30
2018-12-25T17:27:57.810Z,6.30
2018-12-25T17:30:26.744Z,6.30
2018-12-25T17:32:55.731Z,6.30
2018-12-25T17:35:24.346Z,6.40
2018-12-25T17:38:12.546Z,6.40
2018-12-25T17:40:41.184Z,6.30
2018-12-25T17:43:10.357Z,6.30
2018-12-25T17:45:39.341Z,6.30
2018-12-25T17:48:08.633Z,6.30
2018-12-25T17:50:37.875Z,6.20
2018-12-25T17:53:06.630Z,6.30
2018-12-25T17:55:35.646Z,6.20
2018-12-25T17:58:05.850Z,6.30
2018-12-25T18:00:35.226Z,6.30
2018-12-25T18:03:04.389Z,6.30
2018-12-25T18:05:33.680Z,6.30
2018-12-25T18:08:02.396Z,6.20
2018-12-25T18:10:31.661Z,6.30
2018-12-25T18:13:00.803Z,6.30
2018-12-25T18:15:30.265Z,6.30
2018-12-25T18:17:59.445Z,6.30
2018-12-25T18:20:29.563Z,6.30
2018-12-25T18:22:58.920Z,6.30
2018-12-25T18:25:28.524Z,6.30
2018-12-25T18:27:57.877Z,6.30
2018-12-25T18:30:26.860Z,6.30
2018-12-25T18:32:57.307Z,6.30
2018-12-25T18:35:26.938Z,6.30
2018-12-25T18:37:56.043Z,6.30
2018-12-25T18:40:25.026Z,6.30
2018-12-25T18:42:54.543Z,6.30
2018-12-25T18:45:25.052Z,6.30
2018-12-25T18:47:54.087Z,6.30
2018-12-25T18:50:23.455Z,6.30
2018-12-25T18:52:52.769Z,6.30
2018-12-25T18:55:21.911Z,6.30
2018-12-25T18:57:51.403Z,6.30
2018-12-25T19:00:22.085Z,6.40
2018-12-25T19:02:52.277Z,6.30
2018-12-25T19:05:21.073Z,6.20
2018-12-25T19:08:09.590Z,6.30
2018-12-25T19:10:38.436Z,6.30
2018-12-25T19:13:07.318Z,6.30
2018-12-25T19:15:36.577Z,6.30
2018-12-25T19:18:07.752Z,6.30
2018-12-25T19:20:36.620Z,6.20
2018-12-25T19:23:05.548Z,6.20
2018-12-25T19:25:34.948Z,6.20
2018-12-25T19:28:04.157Z,6.30
2018-12-25T19:30:34.868Z,6.30
2018-12-25T19:33:04.036Z,6.30
2018-12-25T19:35:32.949Z,6.30
2018-12-25T19:38:01.826Z,6.30
2018-12-25T19:40:30.768Z,6.30
2018-12-25T19:43:00.213Z,6.30
2018-12-25T19:45:31.253Z,6.30
2018-12-25T19:48:00.324Z,6.40
2018-12-25T19:50:29.669Z,6.20
2018-12-25T19:52:58.564Z,6.30
2018-12-25T19:55:27.330Z,6.30
2018-12-25T19:57:55.976Z,6.20
2018-12-25T20:00:24.890Z,6.20
2018-12-25T20:03:03.992Z,6.20
2018-12-25T20:06:03.155Z,6.10
2018-12-25T20:09:03.429Z,6.20
2018-12-25T20:11:58.030Z,6.10
2018-12-25T20:15:01.972Z,6.10
2018-12-25T20:17:59.855Z,6.20
2018-12-25T20:20:47.206Z,6.20
2018-12-25T20:24:19.407Z,6.20
2018-12-25T20:27:22.982Z,6.10
2018-12-25T20:30:19.661Z,6.10
2018-12-25T20:33:26.356Z,6.10
2018-12-25T20:36:30.393Z,6.10
2018-12-25T20:39:42.281Z,6.10
2018-12-25T20:42:34.249Z,6.00
2018-12-25T20:45:43.563Z,6.10
2018-12-25T20:48:41.753Z,6.00
2018-12-25T20:51:37.047Z,6.00
2018-12-25T20:55:01.180Z,6.10
2018-12-25T20:58:04.320Z,6.10
2018-12-25T21:01:02.134Z,6.00
2018-12-25T21:04:15.021Z,6.00
2018-12-25T21:07:23.853Z,6.00
2018-12-25T21:10:35.433Z,6.00
2018-12-25T21:13:23.193Z,6.00
2018-12-25T21:16:27.768Z,6.00
2018-12-25T21:19:28.356Z,6.00
2018-12-25T21:22:26.208Z,6.00
2018-12-25T21:25:31.217Z,6.10
2018-12-25T21:27:58.644Z,6.00
2018-12-25T21:30:28.117Z,6.00
2018-12-25T21:32:57.331Z,6.00
2018-12-25T21:35:26.349Z,6.00
2018-12-25T21:37:56.808Z,6.00
2018-12-25T21:40:25.855Z,6.10
2018-12-25T21:42:54.740Z,6.10
2018-12-25T21:45:23.468Z,6.10
2018-12-25T21:47:52.349Z,6.00
2018-12-25T21:50:21.790Z,6.00
2018-12-25T21:52:52.152Z,6.10
2018-12-25T21:55:20.934Z,6.10
2018-12-25T21:57:51.306Z,6.10
2018-12-25T22:00:21.260Z,6.10
2018-12-25T22:02:50.584Z,6.10
2018-12-25T22:05:20.651Z,6.20
2018-12-25T22:07:49.764Z,6.10
2018-12-25T22:10:18.649Z,6.10
2018-12-25T22:12:47.349Z,6.10
2018-12-25T22:15:16.481Z,6.20
2018-12-25T22:17:45.177Z,6.10
2018-12-25T22:20:21.780Z,6.20
2018-12-25T22:22:50.531Z,6.10
2018-12-25T22:25:26.893Z,6.20
2018-12-25T22:27:50.517Z,6.10
2018-12-25T22:30:19.398Z,6.10
2018-12-25T22:32:48.038Z,6.10
2018-12-25T22:35:16.984Z,6.10
2018-12-25T22:37:46.140Z,6.10
2018-12-25T22:40:14.776Z,6.10
2018-12-25T22:42:43.721Z,6.10
2018-12-25T22:45:12.616Z,6.10
2018-12-25T22:47:41.708Z,6.10
2018-12-25T22:50:10.901Z,6.20
2018-12-25T22:52:39.532Z,6.10
2018-12-25T22:55:09.666Z,6.10
2018-12-25T22:57:38.357Z,6.20
2018-12-25T23:00:09.853Z,6.20
2018-12-25T23:02:39.296Z,6.20
2018-12-25T23:05:08.202Z,6.20
2018-12-25T23:07:37.567Z,6.20
2018-12-25T23:10:08.145Z,6.20
2018-12-25T23:12:37.292Z,6.20
2018-12-25T23:15:07.449Z,6.20
2018-12-25T23:17:36.542Z,6.20
2018-12-25T23:20:06.142Z,6.20
2018-12-25T23:22:35.104Z,6.20
2018-12-25T23:25:04.200Z,6.30
2018-12-25T23:27:33.320Z,6.20
2018-12-25T23:30:01.952Z,6.20
2018-12-25T23:32:31.241Z,6.20
2018-12-25T23:35:00.390Z,6.20
2018-12-25T23:37:29.081Z,6.20
2018-12-25T23:39:57.840Z,6.30
2018-12-25T23:42:26.952Z,6.30
2018-12-25T23:44:55.669Z,6.20
2018-12-25T23:47:24.613Z,6.20
2018-12-25T23:49:53.245Z,6.30
2018-12-25T23:52:22.126Z,6.20
2018-12-25T23:54:50.805Z,6.20
2018-12-25T23:57:19.908Z,6.20
2018-12-25T23:59:48.674Z,6.30
